Morattico, VA (22523)

4:52 AM EST on January 18, 2018 (GMT -0500)
Remlik | | Change Station
Active Advisory: Special Statement

Elev 20 ft 37.68 °N, 76.62 °W | Updated 2 minutes ago

Clear
Clear
20.6 °F
Feels Like 21 °F
N
0.1
Wind Variable Wind from NNE
Gusts 3.0 mph

Today
High -- | Low -- °F
--% Chance of Precip.
Yesterday
High -- | Low -- °F
Precip. -- in
Pressure 30.18 in
Visibility 10.0 miles
Clouds Clear
Windchill 21 °F
Dew Point 12 °F
Humidity 68%
Rainfall 0.00 in
Snow Depth Not available.
7:19 AM 5:14 PM
New Moon, 2% visible
METAR KXSA 180935Z AUTO 29005KT 10SM CLR M07/M13 A3018 RMK AO2 T10701130
Pressure 30.18 in
Visibility 10.0 miles
Clouds Clear
Windchill 21 °F
Dew Point 12 °F
Humidity 68%
Rainfall 0.00 in
Snow Depth Not available.
7:19 AM 5:14 PM
New Moon, 2% visible
METAR KXSA 180935Z AUTO 29005KT 10SM CLR M07/M13 A3018 RMK AO2 T10701130

Get Your Daily Forecast Email!

Thanks for signing up!

Be on the lookout for a verification email in your inbox.

You'll start receiving severe weather alerts in your inbox..

×

10-Day Weather Forecast

Almanac

Astronomy

Jan. 18, 2018 Rise Set
Actual Time
Civil Twilight
Nautical Twilight
Astronomical Twilight
Moon
Length of Visible Light
Length of Day
Tomorrow will be .
, % of the Moon is Illuminated

Today's Extremes

State Highs State Lows

Community

WunderPhotos

Category 6

Welcome to Category 6. This is the collective home for Weather Underground's featured writeups by Dr. Jeff Masters (right), Bob Henson (left), Chris Burt, and other regular contributors.

Nearby

Air Quality

  Air Quality AQ Index Pollutant
Not available.

Snow Depth

Station Depth Elevation

Earthquake Activity

City Distance Mag. Time & Date
Minimum magnitude displayed is 2.5.

Coastal Water Temperatures

Place Temperature

Stations

Nearby Weather Stations

Station Location Temp. Windchill Dew Point Humidity Wind Precip. Elev Updated Type
                   

Watches & Warnings

Special Statement
Issued: 2:00 AM EST Jan. 18, 2018 – National Weather Service

... Snow and ice covered roads expected through the morning
commute Thursday...

Temperatures overnight through Thursday morning will remain well
below freezing throughout the region, with most roads remaining snow
and ice covered. Travel will remain hazardous through midday
Thursday. Allow plenty of time to get to your destination
overnight and Thursday morning.